Time;durP1;ratioP1;P1;durP2;ratioP2;P2;SDS_P1;SDS_P2;PMS_P1;PMS_P2;Temp;Humidity;BMP_temperature;BMP_pressure;BME280_temperature;BME280_humidity;BME280_pressure;Samples;Min_cycle;Max_cycle;Signal;HPM_P1;HPM_P2
2023/08/04 00:01:54;;;;;;;5.97;2.60;;;17.10;99.90;;;;;;4052122;29;20049;-56
2023/08/04 00:03:57;;;;;;;9.05;2.80;;;17.20;99.90;;;;;;4053169;29;20060;-55
2023/08/04 00:05:59;;;;;;;9.35;2.67;;;17.20;99.90;;;;;;4052554;29;20044;-54
2023/08/04 00:08:02;;;;;;;7.45;3.00;;;17.10;99.90;;;;;;4067020;29;20052;-54
2023/08/04 00:10:05;;;;;;;8.75;2.58;;;17.20;99.90;;;;;;4052449;29;20060;-55
2023/08/04 00:12:07;;;;;;;5.72;2.55;;;17.10;99.90;;;;;;4066865;29;20119;-55
2023/08/04 00:14:09;;;;;;;6.75;2.42;;;17.10;99.90;;;;;;4057588;29;20051;-54
2023/08/04 00:16:11;;;;;;;7.80;2.70;;;17.10;99.90;;;;;;4068567;29;20124;-54
2023/08/04 00:18:13;;;;;;;7.68;2.95;;;17.10;99.90;;;;;;4068265;29;20466;-55
2023/08/04 00:20:17;;;;;;;5.95;3.25;;;17.10;99.90;;;;;;4066845;29;20108;-55
2023/08/04 00:22:19;;;;;;;9.25;3.13;;;17.10;99.90;;;;;;4067563;29;20052;-54
2023/08/04 00:24:21;;;;;;;6.53;3.00;;;17.10;99.90;;;;;;4068298;29;20058;-55
2023/08/04 00:26:23;;;;;;;7.80;3.05;;;17.10;99.90;;;;;;4068079;29;20137;-55
2023/08/04 00:28:25;;;;;;;10.70;2.47;;;17.10;99.90;;;;;;4060539;29;20048;-55
2023/08/04 00:30:27;;;;;;;6.72;2.58;;;17.10;99.90;;;;;;4052094;29;20079;-55
2023/08/04 00:32:29;;;;;;;8.30;3.47;;;17.20;99.90;;;;;;4052188;29;20063;-55
2023/08/04 00:34:31;;;;;;;8.65;2.75;;;17.10;99.90;;;;;;4052553;29;20127;-55
2023/08/04 00:36:35;;;;;;;9.77;3.40;;;17.00;99.90;;;;;;4052110;29;20051;-55
2023/08/04 00:38:37;;;;;;;6.18;3.25;;;17.00;99.90;;;;;;4052305;29;20049;-55
2023/08/04 00:40:39;;;;;;;8.13;3.17;;;17.00;99.90;;;;;;4051675;29;20132;-55
2023/08/04 00:42:41;;;;;;;5.53;2.67;;;17.10;99.90;;;;;;4052339;29;20056;-55
2023/08/04 00:44:43;;;;;;;8.57;2.70;;;17.10;99.90;;;;;;4052463;29;20052;-55
2023/08/04 00:46:45;;;;;;;8.23;3.40;;;17.10;99.90;;;;;;4052475;29;20498;-55
2023/08/04 00:48:47;;;;;;;8.10;2.83;;;17.00;99.90;;;;;;4052364;29;20476;-55
2023/08/04 00:50:49;;;;;;;8.13;2.78;;;17.00;99.90;;;;;;4051666;29;20421;-54
2023/08/04 00:52:53;;;;;;;10.45;3.22;;;17.00;99.90;;;;;;4052245;29;20055;-54
2023/08/04 00:54:55;;;;;;;11.18;3.15;;;17.00;99.90;;;;;;4052534;29;20132;-55
2023/08/04 00:56:58;;;;;;;6.35;2.75;;;17.00;99.90;;;;;;4052576;29;20052;-55
2023/08/04 00:59:00;;;;;;;5.47;2.90;;;17.00;99.90;;;;;;4052707;29;20055;-54
2023/08/04 01:01:02;;;;;;;7.13;3.17;;;16.90;99.90;;;;;;4052278;29;20471;-54
2023/08/04 01:03:05;;;;;;;8.48;3.28;;;17.00;99.90;;;;;;4052382;29;20052;-55
2023/08/04 01:05:07;;;;;;;5.70;3.03;;;16.90;99.90;;;;;;4051926;29;20056;-54
2023/08/04 01:07:18;;;;;;;8.90;3.00;;;16.90;99.90;;;;;;4052427;29;20060;-56
2023/08/04 01:09:30;;;;;;;7.45;3.03;;;16.90;99.90;;;;;;4052263;29;20049;-55
2023/08/04 01:11:39;;;;;;;6.78;2.90;;;16.90;99.90;;;;;;4051692;29;20063;-55
2023/08/04 01:13:42;;;;;;;7.03;3.35;;;16.90;99.90;;;;;;4053437;29;20049;-55
2023/08/04 01:15:45;;;;;;;7.03;2.80;;;16.90;99.90;;;;;;4067639;29;20126;-55
2023/08/04 01:17:47;;;;;;;6.55;2.90;;;17.00;99.90;;;;;;4067921;29;20052;-54
2023/08/04 01:19:49;;;;;;;8.02;2.95;;;16.90;99.90;;;;;;4067477;29;20135;-55
2023/08/04 01:21:52;;;;;;;7.13;3.15;;;16.90;99.90;;;;;;4067224;29;20154;-55
2023/08/04 01:23:54;;;;;;;13.40;3.72;;;16.90;99.90;;;;;;4067846;29;20087;-55
2023/08/04 01:25:57;;;;;;;7.15;3.00;;;16.80;99.90;;;;;;4067549;29;20051;-55
2023/08/04 01:28:02;;;;;;;8.50;2.97;;;16.80;99.90;;;;;;4064007;29;20056;-55
2023/08/04 01:30:09;;;;;;;4.90;2.80;;;16.80;99.90;;;;;;4052188;29;20053;-54
2023/08/04 01:32:11;;;;;;;7.20;3.00;;;16.80;99.90;;;;;;4052589;29;20051;-55
2023/08/04 01:34:13;;;;;;;5.78;2.58;;;16.80;99.90;;;;;;4054659;29;20068;-55
2023/08/04 01:36:15;;;;;;;4.78;2.97;;;16.80;99.90;;;;;;4054943;29;20372;-53
2023/08/04 01:38:19;;;;;;;9.50;3.45;;;16.80;99.90;;;;;;4055141;29;20451;-55
2023/08/04 01:40:21;;;;;;;6.07;3.00;;;16.80;99.90;;;;;;4054494;29;20048;-55
2023/08/04 01:42:23;;;;;;;8.73;3.67;;;16.80;99.90;;;;;;4054338;29;20047;-55
2023/08/04 01:44:25;;;;;;;5.72;3.08;;;16.70;99.90;;;;;;4054692;29;20072;-55
2023/08/04 01:46:27;;;;;;;6.28;3.10;;;16.70;99.90;;;;;;4054817;29;20083;-54
2023/08/04 01:48:29;;;;;;;11.05;3.55;;;16.70;99.90;;;;;;4054406;29;20522;-55
2023/08/04 01:50:31;;;;;;;5.13;2.97;;;16.70;99.90;;;;;;4068508;29;20492;-55
2023/08/04 01:52:33;;;;;;;6.10;3.28;;;16.60;99.90;;;;;;4054501;29;20041;-56
2023/08/04 01:54:37;;;;;;;11.85;3.20;;;16.70;99.90;;;;;;4054608;29;20391;-54
2023/08/04 01:56:39;;;;;;;6.93;2.90;;;16.70;99.90;;;;;;4054822;29;20056;-55
2023/08/04 01:58:41;;;;;;;8.43;3.13;;;16.60;99.90;;;;;;4054560;29;20483;-55
2023/08/04 02:00:43;;;;;;;6.38;2.97;;;16.60;99.90;;;;;;4053948;29;20060;-54
2023/08/04 02:02:45;;;;;;;9.18;3.55;;;16.60;99.90;;;;;;4053990;29;20072;-54
2023/08/04 02:04:47;;;;;;;11.27;4.05;;;16.60;99.90;;;;;;4054434;29;20062;-55
2023/08/04 02:06:49;;;;;;;11.30;3.75;;;16.60;99.90;;;;;;4054558;29;20056;-57
2023/08/04 02:08:51;;;;;;;9.18;3.25;;;16.50;99.90;;;;;;4054490;29;20051;-55
2023/08/04 02:10:55;;;;;;;8.95;3.47;;;16.60;99.90;;;;;;4053709;29;20061;-54
2023/08/04 02:12:57;;;;;;;14.45;4.53;;;16.60;99.90;;;;;;4054515;29;20131;-55
2023/08/04 02:15:04;;;;;;;10.55;4.05;;;16.60;99.90;;;;;;4066326;29;20048;-55
2023/08/04 02:17:06;;;;;;;9.15;3.80;;;16.60;99.90;;;;;;4069723;29;20111;-55
2023/08/04 02:19:09;;;;;;;11.73;4.30;;;16.60;99.90;;;;;;4068914;29;20143;-55
2023/08/04 02:21:11;;;;;;;5.57;3.58;;;16.60;99.90;;;;;;4069497;29;20127;-55
2023/08/04 02:23:13;;;;;;;16.27;4.40;;;16.60;99.90;;;;;;4069797;29;20058;-55
2023/08/04 02:25:15;;;;;;;7.35;3.63;;;16.60;99.90;;;;;;4069714;29;20076;-55
2023/08/04 02:27:19;;;;;;;9.25;3.72;;;16.60;99.90;;;;;;4069867;29;20478;-54
2023/08/04 02:29:21;;;;;;;10.82;4.22;;;16.50;99.90;;;;;;4055225;29;20523;-55
2023/08/04 02:31:24;;;;;;;10.00;4.10;;;16.50;99.90;;;;;;4053431;29;20064;-54
2023/08/04 02:33:26;;;;;;;6.82;3.30;;;16.60;99.90;;;;;;4052482;29;20049;-55
2023/08/04 02:35:28;;;;;;;10.00;4.30;;;16.60;99.90;;;;;;4053855;29;20471;-55
2023/08/04 02:37:35;;;;;;;8.43;3.72;;;16.60;99.90;;;;;;4054020;29;20079;-55
2023/08/04 02:39:37;;;;;;;8.48;3.72;;;16.50;99.90;;;;;;4053971;29;20387;-55
2023/08/04 02:41:39;;;;;;;5.93;3.85;;;16.60;99.90;;;;;;4067634;29;20174;-55
2023/08/04 02:43:43;;;;;;;9.18;4.35;;;16.50;99.90;;;;;;4053519;29;20048;-56
2023/08/04 02:45:47;;;;;;;6.90;3.92;;;16.50;99.90;;;;;;4054571;29;20048;-55
2023/08/04 02:47:49;;;;;;;9.75;4.40;;;16.50;99.90;;;;;;4054076;29;20071;-54
2023/08/04 02:49:52;;;;;;;10.00;4.43;;;16.50;99.90;;;;;;4054209;29;20040;-54
2023/08/04 02:51:54;;;;;;;8.68;4.43;;;16.40;99.90;;;;;;4067468;29;20526;-55
2023/08/04 02:54:01;;;;;;;11.00;4.80;;;16.50;99.90;;;;;;4053803;29;20499;-55
2023/08/04 02:56:09;;;;;;;12.05;4.78;;;16.50;99.90;;;;;;4053774;29;20055;-54
2023/08/04 02:58:11;;;;;;;9.48;4.65;;;16.50;99.90;;;;;;4053670;29;20052;-56
2023/08/04 03:00:15;;;;;;;9.05;3.78;;;16.50;99.90;;;;;;4053756;29;20056;-55
2023/08/04 03:02:17;;;;;;;7.03;4.05;;;16.50;99.90;;;;;;4066984;29;20044;-57
2023/08/04 03:04:19;;;;;;;11.13;4.30;;;16.50;99.90;;;;;;4053799;29;20045;-55
2023/08/04 03:06:21;;;;;;;9.73;4.55;;;16.50;99.90;;;;;;4053757;29;20140;-55
2023/08/04 03:08:23;;;;;;;7.90;3.58;;;16.50;99.90;;;;;;4053566;29;20128;-55
2023/08/04 03:10:25;;;;;;;6.32;3.58;;;16.50;99.90;;;;;;4053465;29;20059;-54
2023/08/04 03:12:27;;;;;;;8.30;3.78;;;16.40;99.90;;;;;;4052896;29;20044;-55
2023/08/04 03:14:29;;;;;;;11.23;4.38;;;16.40;99.90;;;;;;4061043;29;20131;-55
2023/08/04 03:16:33;;;;;;;8.63;3.85;;;16.40;99.90;;;;;;4068769;29;20443;-56
2023/08/04 03:18:35;;;;;;;8.43;3.97;;;16.40;99.90;;;;;;4068978;29;20048;-55
2023/08/04 03:20:38;;;;;;;10.95;4.55;;;16.40;99.90;;;;;;4068898;29;20051;-54
2023/08/04 03:22:40;;;;;;;9.10;4.50;;;16.30;99.90;;;;;;4068708;29;20052;-55
2023/08/04 03:24:43;;;;;;;10.30;5.18;;;16.30;99.90;;;;;;4069004;29;20052;-55
2023/08/04 03:26:45;;;;;;;11.43;4.22;;;16.30;99.90;;;;;;4068985;29;20083;-55
2023/08/04 03:28:47;;;;;;;5.80;3.97;;;16.30;99.90;;;;;;4058686;29;20064;-54
2023/08/04 03:30:49;;;;;;;9.10;4.43;;;16.30;99.90;;;;;;4052651;29;20470;-55
2023/08/04 03:32:53;;;;;;;8.27;5.10;;;16.30;99.90;;;;;;4051950;29;20053;-54
2023/08/04 03:34:55;;;;;;;10.98;5.35;;;16.30;99.90;;;;;;4053267;29;20055;-56
2023/08/04 03:36:57;;;;;;;8.18;4.93;;;16.30;99.90;;;;;;4067581;29;20374;-55
2023/08/04 03:38:59;;;;;;;9.18;4.82;;;16.30;99.90;;;;;;4053218;29;20452;-54
2023/08/04 03:41:01;;;;;;;10.48;5.05;;;16.30;99.90;;;;;;4052601;29;20127;-57
2023/08/04 03:43:05;;;;;;;9.57;4.30;;;16.30;99.90;;;;;;4053113;29;20056;-56
2023/08/04 03:45:08;;;;;;;11.23;4.80;;;16.30;99.90;;;;;;4052605;29;20052;-54
2023/08/04 03:47:10;;;;;;;8.77;4.75;;;16.30;99.90;;;;;;4067475;29;20139;-55
2023/08/04 03:49:13;;;;;;;10.45;4.88;;;16.30;99.90;;;;;;4067411;29;20137;-56
2023/08/04 03:51:17;;;;;;;7.20;3.95;;;16.30;99.90;;;;;;4052269;29;20072;-54
2023/08/04 03:53:19;;;;;;;6.20;4.35;;;16.30;99.90;;;;;;4052972;29;20053;-54
2023/08/04 03:55:22;;;;;;;7.18;4.30;;;16.30;99.90;;;;;;4052726;29;20054;-54
2023/08/04 03:57:24;;;;;;;6.45;4.43;;;16.30;99.90;;;;;;4052725;29;20053;-55
2023/08/04 03:59:26;;;;;;;6.28;4.30;;;16.30;99.90;;;;;;4052684;29;20459;-55
2023/08/04 04:01:28;;;;;;;11.80;4.93;;;16.30;99.90;;;;;;4052350;29;20048;-55
2023/08/04 04:03:30;;;;;;;11.70;5.57;;;16.30;99.90;;;;;;4053336;29;20045;-56
2023/08/04 04:05:33;;;;;;;9.32;4.30;;;16.30;99.90;;;;;;4053341;29;20071;-55
2023/08/04 04:07:36;;;;;;;8.48;4.32;;;16.40;99.90;;;;;;4053048;29;20048;-55
2023/08/04 04:09:38;;;;;;;12.88;4.65;;;16.40;99.90;;;;;;4053375;29;20127;-55
2023/08/04 04:11:40;;;;;;;11.27;4.60;;;16.40;99.90;;;;;;4052539;29;20072;-54
2023/08/04 04:13:42;;;;;;;7.63;4.70;;;16.40;99.90;;;;;;4054039;29;20123;-56
2023/08/04 04:15:44;;;;;;;11.90;5.50;;;16.40;99.90;;;;;;4067752;29;20055;-56
2023/08/04 04:17:46;;;;;;;8.23;4.55;;;16.40;99.90;;;;;;4068681;29;20051;-55
2023/08/04 04:19:48;;;;;;;10.88;4.85;;;16.40;99.90;;;;;;4068521;29;20047;-55
2023/08/04 04:21:52;;;;;;;11.25;4.75;;;16.50;99.90;;;;;;4067527;29;20136;-54
2023/08/04 04:23:54;;;;;;;7.28;4.53;;;16.50;99.90;;;;;;4068220;29;20052;-56
2023/08/04 04:25:56;;;;;;;12.45;4.45;;;16.50;99.90;;;;;;4068389;29;20052;-55
2023/08/04 04:27:58;;;;;;;9.15;4.75;;;16.50;99.90;;;;;;4063609;29;20048;-55
2023/08/04 04:30:00;;;;;;;8.77;4.70;;;16.40;99.90;;;;;;4052697;29;20045;-55
2023/08/04 04:32:02;;;;;;;10.32;4.07;;;16.50;99.90;;;;;;4052086;29;20136;-56
2023/08/04 04:34:04;;;;;;;9.48;4.35;;;16.50;99.90;;;;;;4052647;29;20055;-55
2023/08/04 04:36:06;;;;;;;8.95;4.68;;;16.50;99.90;;;;;;4052331;29;20419;-54
2023/08/04 04:38:10;;;;;;;10.90;4.55;;;16.50;99.90;;;;;;4052709;29;20148;-54
2023/08/04 04:40:12;;;;;;;9.70;4.88;;;16.50;99.90;;;;;;4052348;29;20049;-54
2023/08/04 04:42:16;;;;;;;13.63;5.05;;;16.50;99.90;;;;;;4051428;29;20052;-55
2023/08/04 04:44:18;;;;;;;11.35;4.55;;;16.50;99.90;;;;;;4052459;29;20048;-55
2023/08/04 04:46:21;;;;;;;9.27;4.45;;;16.50;99.90;;;;;;4050954;29;20056;-54
2023/08/04 04:48:24;;;;;;;13.70;5.47;;;16.50;99.90;;;;;;4052074;29;20052;-55
2023/08/04 04:50:26;;;;;;;7.35;4.00;;;16.50;99.90;;;;;;4052455;29;20052;-54
2023/08/04 04:52:32;;;;;;;7.70;4.40;;;16.60;99.90;;;;;;4051669;29;20048;-55
2023/08/04 04:54:36;;;;;;;11.75;5.05;;;16.60;99.90;;;;;;4066493;29;20056;-54
2023/08/04 04:56:38;;;;;;;15.23;5.43;;;16.60;99.90;;;;;;4052102;29;20398;-55
2023/08/04 04:58:40;;;;;;;11.20;5.13;;;16.60;99.90;;;;;;4052475;29;20148;-55
2023/08/04 05:00:42;;;;;;;10.40;5.35;;;16.60;99.90;;;;;;4052148;29;20056;-55
2023/08/04 05:02:44;;;;;;;13.30;5.43;;;16.60;99.90;;;;;;4051812;29;20238;-54
2023/08/04 05:04:47;;;;;;;9.40;4.93;;;16.60;99.90;;;;;;4052230;29;20048;-55
2023/08/04 05:06:49;;;;;;;12.73;5.57;;;16.60;99.90;;;;;;4052923;29;20132;-55
2023/08/04 05:08:51;;;;;;;9.50;5.28;;;16.60;99.90;;;;;;4055384;29;20498;-55
2023/08/04 05:10:54;;;;;;;18.63;5.20;;;16.60;99.90;;;;;;4055224;29;20060;-55
2023/08/04 05:12:56;;;;;;;8.80;5.10;;;16.60;99.90;;;;;;4054185;29;20056;-55
2023/08/04 05:14:58;;;;;;;11.30;5.13;;;16.60;99.90;;;;;;4066403;29;20503;-55
2023/08/04 05:17:00;;;;;;;10.85;5.35;;;16.60;99.90;;;;;;4070975;29;20502;-56
2023/08/04 05:19:02;;;;;;;12.82;6.13;;;16.60;99.90;;;;;;4071145;29;20132;-55
2023/08/04 05:21:04;;;;;;;12.82;5.40;;;16.70;99.90;;;;;;4069780;29;20452;-55
2023/08/04 05:23:06;;;;;;;12.13;5.88;;;16.60;99.90;;;;;;4069171;29;20189;-55
2023/08/04 05:25:08;;;;;;;12.50;4.95;;;16.60;99.90;;;;;;4070861;29;20048;-54
2023/08/04 05:27:14;;;;;;;13.88;5.97;;;16.70;99.90;;;;;;4070486;29;20433;-54
2023/08/04 05:29:16;;;;;;;17.35;7.63;;;16.60;99.90;;;;;;4056672;29;20451;-54
2023/08/04 05:31:18;;;;;;;19.17;8.20;;;16.60;99.90;;;;;;4053502;29;20450;-54
2023/08/04 05:33:20;;;;;;;11.55;6.85;;;16.60;99.90;;;;;;4054800;29;20119;-55
2023/08/04 05:35:22;;;;;;;12.13;7.45;;;16.60;99.90;;;;;;4054729;29;20123;-55
2023/08/04 05:37:24;;;;;;;8.95;5.80;;;16.60;99.90;;;;;;4054770;29;20044;-54
2023/08/04 05:39:32;;;;;;;13.60;7.53;;;16.70;99.90;;;;;;4054766;29;20045;-55
2023/08/04 05:41:34;;;;;;;13.82;7.25;;;16.70;99.90;;;;;;4054051;29;20573;-54
2023/08/04 05:43:38;;;;;;;12.52;6.85;;;16.70;99.90;;;;;;4054929;29;20148;-55
2023/08/04 05:45:44;;;;;;;12.13;6.50;;;16.60;99.90;;;;;;4054944;29;20140;-55
2023/08/04 05:47:46;;;;;;;16.55;6.97;;;16.60;99.90;;;;;;4054621;29;20100;-55
2023/08/04 05:49:50;;;;;;;15.82;6.97;;;16.60;99.90;;;;;;4054641;29;20052;-55
2023/08/04 05:51:52;;;;;;;11.48;6.10;;;16.60;99.90;;;;;;4054056;29;20075;-55
2023/08/04 05:53:54;;;;;;;19.58;9.18;;;16.70;99.90;;;;;;4054609;29;20520;-55
2023/08/04 05:55:56;;;;;;;14.57;6.65;;;16.70;99.90;;;;;;4054179;29;20084;-55
2023/08/04 05:57:58;;;;;;;16.52;7.22;;;16.70;99.90;;;;;;4054583;29;20052;-54
2023/08/04 06:00:04;;;;;;;14.98;6.03;;;16.70;99.90;;;;;;4054544;29;20104;-55
2023/08/04 06:02:06;;;;;;;14.23;6.93;;;16.80;99.90;;;;;;4054095;29;20411;-56
2023/08/04 06:04:08;;;;;;;11.18;5.68;;;16.80;99.90;;;;;;4054513;29;20044;-54
2023/08/04 06:06:11;;;;;;;17.65;7.28;;;16.80;99.90;;;;;;4054471;29;20072;-54
2023/08/04 06:08:13;;;;;;;18.45;7.65;;;16.80;99.90;;;;;;4054605;29;20077;-54
2023/08/04 06:10:19;;;;;;;16.88;7.90;;;16.80;99.90;;;;;;4053953;29;20088;-54
2023/08/04 06:12:21;;;;;;;13.25;6.15;;;16.90;99.90;;;;;;4053679;29;20056;-55
2023/08/04 06:14:23;;;;;;;16.90;7.63;;;16.80;99.90;;;;;;4060746;29;20486;-54
2023/08/04 06:16:26;;;;;;;15.82;7.20;;;16.90;99.90;;;;;;4070097;29;20052;-55
2023/08/04 06:18:28;;;;;;;14.25;7.07;;;16.90;99.90;;;;;;4070051;29;20078;-55
2023/08/04 06:20:31;;;;;;;18.58;7.75;;;16.90;99.90;;;;;;4069832;29;20056;-55
2023/08/04 06:22:34;;;;;;;13.73;7.47;;;17.00;99.90;;;;;;4069301;29;20459;-55
2023/08/04 06:24:36;;;;;;;15.38;7.85;;;17.00;99.90;;;;;;4069415;29;20044;-55
2023/08/04 06:26:38;;;;;;;13.35;7.10;;;17.00;99.90;;;;;;4069845;29;20516;-54
2023/08/04 06:28:41;;;;;;;13.45;7.53;;;17.00;99.90;;;;;;4060148;29;20059;-55
2023/08/04 06:30:43;;;;;;;14.73;8.38;;;17.00;99.90;;;;;;4054053;29;20145;-54
2023/08/04 06:32:47;;;;;;;20.55;8.13;;;17.10;99.90;;;;;;4053437;29;20057;-61
2023/08/04 06:34:49;;;;;;;13.90;6.63;;;17.10;99.90;;;;;;4054107;29;20049;-55
2023/08/04 06:36:51;;;;;;;16.38;7.20;;;17.10;99.90;;;;;;4054126;29;20417;-55
2023/08/04 06:38:54;;;;;;;15.52;6.53;;;17.10;99.90;;;;;;4054068;29;20084;-57
2023/08/04 06:40:58;;;;;;;25.15;8.32;;;17.20;99.90;;;;;;4054613;29;20053;-55
2023/08/04 06:43:00;;;;;;;15.63;7.15;;;17.20;99.90;;;;;;4053543;29;20040;-56
2023/08/04 06:45:03;;;;;;;12.15;7.10;;;17.30;99.90;;;;;;4054100;29;20076;-55
2023/08/04 06:47:05;;;;;;;17.92;7.05;;;17.30;99.90;;;;;;4053979;29;20087;-56
2023/08/04 06:49:09;;;;;;;15.00;7.13;;;17.30;99.90;;;;;;4068287;29;20086;-55
2023/08/04 06:51:11;;;;;;;15.82;7.43;;;17.40;99.90;;;;;;4054078;29;20495;-55
2023/08/04 06:53:13;;;;;;;17.52;8.02;;;17.40;99.90;;;;;;4052746;29;20048;-55
2023/08/04 06:55:15;;;;;;;17.73;7.15;;;17.40;99.90;;;;;;4054061;29;20113;-54
2023/08/04 06:57:17;;;;;;;22.00;7.93;;;17.40;99.90;;;;;;4053887;29;20083;-55
2023/08/04 06:59:19;;;;;;;21.58;7.75;;;17.50;99.90;;;;;;4068068;29;20072;-54
2023/08/04 07:01:21;;;;;;;15.20;8.05;;;17.60;99.90;;;;;;4053789;29;20498;-54
2023/08/04 07:03:23;;;;;;;16.30;7.40;;;17.60;99.90;;;;;;4053103;29;20052;-54
2023/08/04 07:05:27;;;;;;;19.45;8.00;;;17.60;99.90;;;;;;4053847;29;20052;-53
2023/08/04 07:07:29;;;;;;;17.63;7.85;;;17.70;99.90;;;;;;4053526;29;20067;-55
2023/08/04 07:09:31;;;;;;;20.20;8.60;;;17.70;99.90;;;;;;4053537;29;20060;-55
2023/08/04 07:11:33;;;;;;;15.50;7.43;;;17.80;99.90;;;;;;4053430;29;20463;-55
2023/08/04 07:13:35;;;;;;;9.63;6.43;;;17.90;99.90;;;;;;4053483;29;20131;-54
2023/08/04 07:15:37;;;;;;;16.25;9.27;;;17.90;99.90;;;;;;4069119;29;20119;-55
2023/08/04 07:17:39;;;;;;;17.83;7.97;;;17.90;99.90;;;;;;4068913;29;20467;-56
2023/08/04 07:19:41;;;;;;;14.80;7.55;;;17.90;99.90;;;;;;4069307;29;20055;-56
2023/08/04 07:21:45;;;;;;;15.68;8.52;;;18.00;99.90;;;;;;4068082;29;20052;-54
2023/08/04 07:23:48;;;;;;;14.57;7.57;;;18.00;99.90;;;;;;4068850;29;20052;-55
2023/08/04 07:25:55;;;;;;;16.25;7.55;;;18.10;99.90;;;;;;4069108;29;20131;-53
2023/08/04 07:27:57;;;;;;;14.30;8.15;;;18.20;99.90;;;;;;4065239;29;20093;-51
2023/08/04 07:29:59;;;;;;;13.93;7.57;;;18.20;99.90;;;;;;4051982;29;20423;-53
2023/08/04 07:32:02;;;;;;;12.57;6.20;;;18.20;99.90;;;;;;4052563;29;20144;-53
2023/08/04 07:34:04;;;;;;;17.50;7.32;;;18.30;99.90;;;;;;4053100;29;20469;-55
2023/08/04 07:36:06;;;;;;;13.25;6.65;;;18.30;99.90;;;;;;4052660;29;20159;-52
2023/08/04 07:38:09;;;;;;;14.85;6.95;;;18.30;99.90;;;;;;4053377;29;20140;-51
2023/08/04 07:40:12;;;;;;;16.05;7.25;;;18.30;99.90;;;;;;4053002;29;20085;-52
2023/08/04 07:42:14;;;;;;;17.92;7.43;;;18.30;99.90;;;;;;4052508;29;20076;-53
2023/08/04 07:44:16;;;;;;;11.77;6.57;;;18.30;99.90;;;;;;4053149;29;20080;-52
2023/08/04 07:46:22;;;;;;;17.42;6.82;;;18.30;99.90;;;;;;4053113;29;20120;-52
2023/08/04 07:48:24;;;;;;;12.65;6.22;;;18.30;99.90;;;;;;4053132;29;20131;-52
2023/08/04 07:50:26;;;;;;;13.55;6.72;;;18.30;99.90;;;;;;4053019;29;20056;-53
2023/08/04 07:52:29;;;;;;;13.40;7.07;;;18.40;99.90;;;;;;4052184;29;20083;-51
2023/08/04 07:54:33;;;;;;;15.95;7.03;;;18.40;99.90;;;;;;4052858;29;20088;-53
2023/08/04 07:56:36;;;;;;;10.90;7.10;;;18.50;99.90;;;;;;4053074;29;20053;-52
2023/08/04 07:58:38;;;;;;;12.77;6.63;;;18.60;99.90;;;;;;4053143;29;20455;-52
2023/08/04 08:00:41;;;;;;;14.32;5.93;;;18.70;99.90;;;;;;4067241;29;20546;-53
2023/08/04 08:02:44;;;;;;;16.63;5.97;;;18.70;99.90;;;;;;4052253;29;20083;-53
2023/08/04 08:04:46;;;;;;;16.60;7.10;;;18.80;99.90;;;;;;4052942;29;20049;-53
2023/08/04 08:06:48;;;;;;;11.93;6.30;;;18.80;99.90;;;;;;4052377;29;20052;-53
2023/08/04 08:08:50;;;;;;;15.50;6.50;;;18.80;99.90;;;;;;4052874;29;20048;-52
2023/08/04 08:10:54;;;;;;;13.32;6.25;;;18.80;99.90;;;;;;4052830;29;20056;-52
2023/08/04 08:12:56;;;;;;;20.13;5.40;;;18.90;99.90;;;;;;4052221;29;20124;-55
2023/08/04 08:14:58;;;;;;;11.45;5.78;;;19.00;99.90;;;;;;4063845;29;20055;-53
2023/08/04 08:17:00;;;;;;;13.68;5.95;;;19.00;99.90;;;;;;4068454;29;20087;-54
2023/08/04 08:19:03;;;;;;;14.48;6.20;;;19.10;99.90;;;;;;4067198;29;20154;-53
2023/08/04 08:21:06;;;;;;;12.60;6.05;;;19.10;99.90;;;;;;4068141;29;20048;-53
2023/08/04 08:23:09;;;;;;;16.20;5.82;;;19.20;99.90;;;;;;4067429;29;20048;-53
2023/08/04 08:25:12;;;;;;;10.05;5.18;;;19.20;99.90;;;;;;4069072;29;20127;-55
2023/08/04 08:27:16;;;;;;;11.00;5.40;;;19.30;99.90;;;;;;4067763;29;20075;-58
2023/08/04 08:29:18;;;;;;;14.10;4.90;;;19.30;99.90;;;;;;4053926;29;20087;-53
2023/08/04 08:31:23;;;;;;;14.55;5.60;;;19.40;99.90;;;;;;4052636;29;20059;-52
2023/08/04 08:33:26;;;;;;;11.18;5.10;;;19.40;99.90;;;;;;4051614;29;20396;-52
2023/08/04 08:35:28;;;;;;;13.55;5.13;;;19.50;99.90;;;;;;4052050;29;20044;-55
2023/08/04 08:37:30;;;;;;;12.32;5.72;;;19.60;99.90;;;;;;4052458;29;20105;-56
2023/08/04 08:39:32;;;;;;;14.00;5.18;;;19.70;99.90;;;;;;4052689;29;20087;-55
2023/08/04 08:41:34;;;;;;;15.35;5.25;;;19.80;99.90;;;;;;4052443;29;20076;-55
2023/08/04 08:43:38;;;;;;;10.93;4.40;;;19.80;99.90;;;;;;4055075;29;20491;-55
2023/08/04 08:45:41;;;;;;;10.82;4.35;;;19.90;99.90;;;;;;4055832;29;20102;-54
2023/08/04 08:47:46;;;;;;;9.20;4.53;;;20.00;99.90;;;;;;4055701;29;20053;-55
2023/08/04 08:49:55;;;;;;;13.57;4.90;;;20.00;99.90;;;;;;4069561;29;20044;-55
2023/08/04 08:51:58;;;;;;;13.70;5.30;;;20.00;99.90;;;;;;4055054;29;20063;-52
2023/08/04 08:54:02;;;;;;;8.57;4.32;;;20.00;99.90;;;;;;4055389;29;20096;-51
2023/08/04 08:56:05;;;;;;;17.08;4.32;;;20.10;99.90;;;;;;4055412;29;20075;-52
2023/08/04 08:58:08;;;;;;;8.95;3.45;;;20.10;99.90;;;;;;4055518;29;20053;-52
2023/08/04 09:00:13;;;;;;;11.25;4.13;;;20.20;99.90;;;;;;4055581;29;20417;-52
2023/08/04 09:02:15;;;;;;;8.82;3.92;;;20.30;99.90;;;;;;4054899;29;20055;-52
2023/08/04 09:04:19;;;;;;;10.00;3.50;;;20.50;99.90;;;;;;4054969;29;20061;-51
2023/08/04 09:06:21;;;;;;;9.82;3.42;;;20.60;99.90;;;;;;4055270;29;20127;-52
2023/08/04 09:08:23;;;;;;;8.50;3.08;;;20.70;99.90;;;;;;4055316;29;20076;-51
2023/08/04 09:10:25;;;;;;;7.35;3.22;;;20.80;99.90;;;;;;4055336;29;20430;-52
2023/08/04 09:12:28;;;;;;;9.13;3.28;;;20.90;99.90;;;;;;4054617;29;20072;-52
2023/08/04 09:14:46;;;;;;;12.20;3.58;;;20.90;99.90;;;;;;4062692;29;20069;-52
2023/08/04 09:16:50;;;;;;;6.30;2.55;;;21.10;99.90;;;;;;4071072;29;20121;-52
2023/08/04 09:19:00;;;;;;;8.90;3.60;;;21.20;99.90;;;;;;4070499;29;20056;-51
2023/08/04 09:21:11;;;;;;;5.50;2.65;;;21.20;99.90;;;;;;4070984;29;20159;-52
2023/08/04 09:23:13;;;;;;;10.10;3.28;;;21.20;99.90;;;;;;4070267;29;20518;-51
2023/08/04 09:25:15;;;;;;;12.20;2.90;;;21.40;99.90;;;;;;4070739;29;20052;-52
2023/08/04 09:27:27;;;;;;;7.75;3.00;;;21.40;99.90;;;;;;4070833;29;20402;-52
2023/08/04 09:29:29;;;;;;;6.50;3.13;;;21.50;99.90;;;;;;4039557;29;20474;-51
2023/08/04 09:31:35;;;;;;;6.68;3.25;;;21.30;99.90;;;;;;4039485;29;20060;-52
2023/08/04 09:33:41;;;;;;;8.40;3.30;;;21.20;99.90;;;;;;4038574;29;20053;-51
2023/08/04 09:35:44;;;;;;;8.10;2.58;;;21.20;99.90;;;;;;4047114;29;20045;-52
2023/08/04 09:37:46;;;;;;;7.65;2.47;;;21.10;99.90;;;;;;4055108;29;20084;-52
2023/08/04 09:39:48;;;;;;;7.88;2.65;;;21.20;99.90;;;;;;4055100;29;20136;-51
2023/08/04 09:41:50;;;;;;;5.07;2.85;;;21.20;99.90;;;;;;4055064;29;20414;-52
2023/08/04 09:43:53;;;;;;;6.85;2.65;;;21.20;99.90;;;;;;4054232;29;20055;-52
2023/08/04 09:45:57;;;;;;;8.52;2.92;;;21.20;99.90;;;;;;4054765;29;20068;-51
2023/08/04 09:47:59;;;;;;;8.93;3.05;;;21.40;99.90;;;;;;4068990;29;20052;-51
2023/08/04 09:50:09;;;;;;;6.88;2.70;;;21.50;99.90;;;;;;4054726;29;20048;-51
2023/08/04 09:52:19;;;;;;;5.47;1.90;;;21.60;99.90;;;;;;4053961;29;20057;-52
2023/08/04 09:54:21;;;;;;;4.55;1.98;;;21.70;99.90;;;;;;4054534;29;20049;-53
2023/08/04 09:56:23;;;;;;;6.60;2.13;;;21.90;99.90;;;;;;4054940;29;20053;-53
2023/08/04 09:58:26;;;;;;;7.55;2.30;;;22.00;99.90;;;;;;4055109;29;20048;-51
2023/08/04 10:00:28;;;;;;;8.23;3.25;;;22.20;99.90;;;;;;4054755;29;20061;-50
2023/08/04 10:02:30;;;;;;;6.07;2.90;;;22.10;99.90;;;;;;4068138;29;20048;-51
2023/08/04 10:04:33;;;;;;;7.75;3.03;;;22.20;99.90;;;;;;4054390;29;20147;-52
2023/08/04 10:06:38;;;;;;;7.18;3.15;;;22.30;99.90;;;;;;4054477;29;20510;-50
2023/08/04 10:08:41;;;;;;;5.38;3.00;;;22.30;99.90;;;;;;4054714;29;20120;-51
2023/08/04 10:10:44;;;;;;;5.85;2.22;;;22.30;99.90;;;;;;4054520;29;20087;-51
2023/08/04 10:12:47;;;;;;;5.00;2.65;;;22.40;99.90;;;;;;4054775;29;20451;-60
2023/08/04 10:14:49;;;;;;;5.13;2.40;;;22.30;99.90;;;;;;4065191;29;20052;-52
2023/08/04 10:16:53;;;;;;;6.25;2.95;;;22.20;99.90;;;;;;4069805;29;20048;-52
2023/08/04 10:19:00;;;;;;;4.80;2.80;;;22.10;99.90;;;;;;4069954;29;20059;-51
2023/08/04 10:21:02;;;;;;;4.57;2.30;;;22.00;99.90;;;;;;4070080;29;20048;-52
2023/08/04 10:23:05;;;;;;;6.65;3.88;;;21.90;99.90;;;;;;4069308;29;20458;-52
2023/08/04 10:25:15;;;;;;;6.85;4.00;;;21.80;99.90;;;;;;4069934;29;20044;-53
2023/08/04 10:27:19;;;;;;;4.65;3.00;;;21.70;99.90;;;;;;4070018;29;20052;-52
2023/08/04 10:29:31;;;;;;;4.43;2.80;;;21.60;99.90;;;;;;4055103;29;20053;-51
2023/08/04 10:31:50;;;;;;;7.07;2.60;;;21.60;99.90;;;;;;4054022;29;20091;-50
2023/08/04 10:34:17;;;;;;;5.68;2.58;;;21.70;99.90;;;;;;4053661;29;20056;-52
2023/08/04 10:36:19;;;;;;;7.75;3.55;;;21.90;99.90;;;;;;4052839;29;20380;-51